< < Back
Terminal Aerodrome Forecast


Current Version              Previous Versions:   1  2  3  4  5  6  7  8  9  

Terminal Aerodrome Forecast

634
FTUS42 KTAE 172300
TAFDHN
TAF
KDHN 172338Z 1800/1824 07012G18KT P6SM OVC035
     FM180300 08011KT P6SM BKN025
     FM180700 07013KT 5SM RA OVC008
     FM181200 07013G20KT 2SM +RA OVC007
     FM182100 04017G25KT 4SM RA OVC010=



Latest METAR

684
SAUS70 KWBC 181100 RRI
MTRDHN
METAR KDHN 181053Z 07009KT 4SM +RA BR BKN009 OVC027 12/12 A3019 RMK AO2
SLP221 P0018 T01220117


USA.gov is the U.S. government's official web portal to all federal, state and local government web resources and services.